Lexington, MA

9:51 AM EST on November 27, 2014 (GMT -0500)
East Milton | Change Station
CLOSE
Current Station
Airport
Location: East Milton,
Elevation: 630 ft
Nearby Weather Stations

Elev 630 ft 42.21 °N, 71.11 °W | Updated 9 hours ago

Mostly Cloudy
Mostly Cloudy
36 °F
Feels Like 32 °F
N
6
Wind Variable Wind from WNW
Gusts 9 mph

Today
High -- | Low -- °F
--% Chance of Precip.
Yesterday
High -- | Low -- °F
Precip. -- in
6:50 AM 4:14 PM
Waxing Crescent, 30% visible
Pressure 29.67 in
Visibility -9999.0 miles
Clouds
Windchill 32 °F
Dew Point 28 °F
Humidity 72%
Rainfall 1.79 in
Snow Depth Not available.
UV Not available.
Pollen .10 out of 12
Air Quality Not available.
Flu Activity Not available.
METAR KMQE 270454Z AUTO 35019G29KT M01/M01 A2962 RMK AO1 PK WND 36035/0424 SLP046 P0001 T10061006 400671006

More Conditions Fewer Conditions

Pressure 29.67 in
Visibility -9999.0 miles
Clouds
Windchill 32 °F
Dew Point 28 °F
Humidity 72%
Rainfall 1.79 in
Snow Depth Not available.
UV Not available.
Pollen .10 out of 12
Air Quality Not available.
Flu Activity Not available.
METAR KMQE 270454Z AUTO 35019G29KT M01/M01 A2962 RMK AO1 PK WND 36035/0424 SLP046 P0001 T10061006 400671006

More Conditions Fewer Conditions

10-Day Weather Forecast

Almanac

Astronomy

Nov. 27, 2014 Rise Set
Actual Time
Civil Twilight
Nautical Twilight
Astronomical Twilight
Moon
Length of Visible Light
Length of Day
Tomorrow will be .
, % of the Moon is Illuminated

Today's Extremes

State Highs State Lows

Community

WunderPhotos

Upload Photos

1,774,005 photos uploaded!

WunderBlogs® & News

Nearby

Air Quality

  Air Quality AQ Index Pollutant
Not available.

Snow Depth

Station Depth Elevation

Earthquake Activity

City Distance Mag. Time & Date
Minimum magnitude displayed is 2.5.

Coastal Water Temperatures

Place Temperature

Nearby Weather Stations